createdAt,value
2019-04-03T00:01:10.403Z,7.50
2019-04-03T00:06:15.241Z,7.50
2019-04-03T00:11:20.058Z,7.40
2019-04-03T00:16:24.885Z,7.50
2019-04-03T00:21:29.719Z,7.40
2019-04-03T00:26:34.559Z,7.40
2019-04-03T00:31:39.384Z,7.40
2019-04-03T00:36:44.366Z,7.40
2019-04-03T00:41:49.235Z,7.30
2019-04-03T00:46:55.749Z,7.30
2019-04-03T00:52:00.521Z,7.30
2019-04-03T00:57:05.359Z,7.20
2019-04-03T01:02:10.208Z,7.20
2019-04-03T01:07:15.009Z,7.20
2019-04-03T01:12:19.835Z,7.10
2019-04-03T01:17:24.580Z,7.30
2019-04-03T01:22:29.405Z,7.20
2019-04-03T01:27:34.238Z,7.10
2019-04-03T01:32:39.189Z,7.10
2019-04-03T01:37:44.071Z,7.00
2019-04-03T01:42:48.984Z,6.90
2019-04-03T01:47:53.811Z,6.90
2019-04-03T01:52:58.879Z,6.90
2019-04-03T01:58:06.735Z,6.70
2019-04-03T02:03:12.131Z,6.70
2019-04-03T02:08:16.972Z,6.80
2019-04-03T02:13:22.021Z,6.70
2019-04-03T02:18:27.267Z,6.60
2019-04-03T02:23:32.085Z,6.50
2019-04-03T02:28:36.921Z,6.60
2019-04-03T02:33:41.757Z,6.50
2019-04-03T02:38:46.580Z,6.40
2019-04-03T02:43:51.832Z,6.50
2019-04-03T02:48:56.824Z,6.50
2019-04-03T02:54:03.047Z,6.30
2019-04-03T02:59:07.968Z,6.30
2019-04-03T03:04:13.191Z,6.40
2019-04-03T03:09:18.769Z,6.30
2019-04-03T03:14:24.043Z,6.20
2019-04-03T03:19:32.097Z,6.20
2019-04-03T03:24:36.485Z,6.20
2019-04-03T03:29:41.741Z,6.10
2019-04-03T03:34:55.047Z,6.00
2019-04-03T03:39:53.173Z,6.00
2019-04-03T03:45:01.528Z,6.00
2019-04-03T03:50:07.868Z,6.00
2019-04-03T03:55:12.690Z,5.90
2019-04-03T04:05:37.461Z,5.90
2019-04-03T04:10:44.132Z,5.90
2019-04-03T04:15:49.198Z,5.90
2019-04-03T04:20:54.196Z,5.90
2019-04-03T04:26:01.585Z,5.90
2019-04-03T04:31:06.558Z,5.90
2019-04-03T04:36:11.450Z,5.90
2019-04-03T04:41:16.237Z,6.00
2019-04-03T04:46:21.497Z,5.90
2019-04-03T04:51:26.465Z,6.00
2019-04-03T04:56:31.335Z,5.90
2019-04-03T05:01:36.174Z,5.90
2019-04-03T05:06:41.126Z,6.00
2019-04-03T05:11:45.964Z,6.10
2019-04-03T05:16:50.808Z,6.10
2019-04-03T05:21:55.629Z,6.30
2019-04-03T05:27:02.662Z,6.40
2019-04-03T05:32:09.504Z,6.50
2019-04-03T05:37:14.294Z,6.60
2019-04-03T05:42:19.097Z,6.80
2019-04-03T05:47:23.958Z,6.90
2019-04-03T05:52:29.088Z,7.10
2019-04-03T05:57:33.944Z,7.20
2019-04-03T06:02:38.703Z,7.30
2019-04-03T06:07:43.456Z,7.50
2019-04-03T06:12:48.285Z,7.60
2019-04-03T06:17:55.361Z,7.70
2019-04-03T06:22:59.773Z,7.90
2019-04-03T06:28:04.803Z,8.00
2019-04-03T06:33:09.630Z,8.20
2019-04-03T06:38:14.569Z,8.40
2019-04-03T06:43:22.045Z,8.50
2019-04-03T06:48:27.399Z,8.70
2019-04-03T06:53:32.296Z,8.90
2019-04-03T06:58:39.601Z,9.00
2019-04-03T07:03:43.587Z,9.20
2019-04-03T07:08:48.414Z,9.40
2019-04-03T07:13:54.352Z,9.60
2019-04-03T07:18:59.539Z,9.60
2019-04-03T07:24:04.417Z,9.60
2019-04-03T07:29:11.474Z,9.60
2019-04-03T07:34:15.725Z,9.90
2019-04-03T07:39:20.593Z,10.30
2019-04-03T07:44:25.491Z,10.50
2019-04-03T07:49:30.382Z,10.60
2019-04-03T07:54:35.264Z,10.70
2019-04-03T07:59:40.400Z,11.00
2019-04-03T08:04:45.856Z,11.10
2019-04-03T08:09:50.689Z,11.20
2019-04-03T08:14:55.549Z,11.40
2019-04-03T08:20:00.426Z,11.60
2019-04-03T08:25:07.007Z,11.50
2019-04-03T08:30:12.078Z,11.80
2019-04-03T08:35:21.573Z,12.00
2019-04-03T08:40:23.514Z,12.10
2019-04-03T08:45:28.773Z,12.40
2019-04-03T08:50:33.721Z,12.50
2019-04-03T08:55:38.823Z,12.50
2019-04-03T09:00:44.097Z,12.70
2019-04-03T09:05:50.901Z,12.90
2019-04-03T09:10:55.520Z,13.20
2019-04-03T09:16:00.429Z,13.20
2019-04-03T09:21:05.556Z,13.40
2019-04-03T09:26:10.345Z,13.50
2019-04-03T09:31:18.609Z,13.40
2019-04-03T09:36:21.802Z,13.60
2019-04-03T09:41:26.657Z,14.00
2019-04-03T09:46:31.908Z,14.10
2019-04-03T09:51:37.340Z,14.10
2019-04-03T09:56:56.106Z,14.00
2019-04-03T10:01:48.767Z,14.10
2019-04-03T10:06:53.961Z,14.40
2019-04-03T10:11:58.860Z,14.70
2019-04-03T10:17:05.886Z,15.10
2019-04-03T10:22:10.260Z,15.40
2019-04-03T10:27:15.113Z,15.40
2019-04-03T10:32:20.249Z,15.70
2019-04-03T10:37:25.127Z,15.20
2019-04-03T10:42:31.273Z,15.40
2019-04-03T10:47:43.127Z,15.50
2019-04-03T10:52:44.622Z,15.60
2019-04-03T10:57:49.920Z,15.50
2019-04-03T11:02:56.280Z,15.50
2019-04-03T11:08:01.510Z,15.80
2019-04-03T11:13:06.772Z,16.10
2019-04-03T11:18:11.652Z,16.20
2019-04-03T11:23:17.949Z,16.30
2019-04-03T11:28:22.985Z,16.50
2019-04-03T11:33:27.854Z,16.50
2019-04-03T11:38:32.684Z,16.90
2019-04-03T11:43:37.546Z,16.80
2019-04-03T11:48:43.526Z,17.10
2019-04-03T11:53:49.033Z,17.00
2019-04-03T11:58:54.183Z,17.00
2019-04-03T12:03:59.421Z,17.00
2019-04-03T12:09:07.039Z,17.00
2019-04-03T12:14:11.874Z,17.00
2019-04-03T12:19:17.081Z,17.00
2019-04-03T12:24:21.982Z,17.10
2019-04-03T12:29:26.841Z,17.10
2019-04-03T12:34:32.025Z,17.00
2019-04-03T12:39:36.899Z,17.00
2019-04-03T12:44:42.052Z,17.00
2019-04-03T12:49:47.008Z,17.20
2019-04-03T12:54:53.758Z,17.10
2019-04-03T12:59:59.962Z,17.20
2019-04-03T13:05:07.800Z,17.00
2019-04-03T13:10:13.186Z,16.80
2019-04-03T13:15:19.414Z,17.00
2019-04-03T13:20:24.670Z,17.30
2019-04-03T13:25:29.545Z,17.40
2019-04-03T13:30:34.404Z,17.30
2019-04-03T13:35:39.264Z,17.20
2019-04-03T13:40:44.132Z,17.10
2019-04-03T13:45:49.001Z,17.10
2019-04-03T13:50:54.858Z,17.40
2019-04-03T13:56:02.153Z,17.40
2019-04-03T14:01:08.903Z,17.20
2019-04-03T14:06:13.517Z,17.10
2019-04-03T14:11:18.461Z,17.00
2019-04-03T14:16:23.762Z,17.00
2019-04-03T14:21:29.211Z,16.90
2019-04-03T14:26:34.257Z,16.90
2019-04-03T14:31:39.084Z,16.90
2019-04-03T14:36:43.912Z,17.00
2019-04-03T14:41:48.765Z,16.90
2019-04-03T14:46:53.688Z,16.80
2019-04-03T14:51:58.561Z,16.70
2019-04-03T14:57:12.705Z,16.60
2019-04-03T15:02:09.889Z,16.40
2019-04-03T15:07:15.779Z,16.40
2019-04-03T15:12:21.650Z,16.40
2019-04-03T15:17:26.514Z,16.20
2019-04-03T15:22:32.767Z,16.20
2019-04-03T15:27:38.231Z,16.10
2019-04-03T15:32:43.474Z,16.10
2019-04-03T15:37:48.317Z,16.10
2019-04-03T15:42:54.074Z,16.10
2019-04-03T15:47:59.589Z,16.00
2019-04-03T15:53:04.631Z,15.90
2019-04-03T15:58:09.820Z,15.80
2019-04-03T16:03:14.981Z,15.60
2019-04-03T16:08:21.557Z,15.60
2019-04-03T16:13:26.461Z,15.50
2019-04-03T16:18:31.297Z,15.40
2019-04-03T16:23:38.162Z,15.40
2019-04-03T16:28:43.089Z,15.20
2019-04-03T16:33:47.924Z,15.10
2019-04-03T16:38:52.796Z,14.90
2019-04-03T16:43:57.630Z,14.90
2019-04-03T16:49:03.458Z,14.80
2019-04-03T16:54:11.869Z,14.70
2019-04-03T16:59:16.028Z,14.60
2019-04-03T17:04:27.017Z,14.60
2019-04-03T17:09:27.785Z,14.40
2019-04-03T17:14:33.126Z,14.40
2019-04-03T17:19:38.561Z,14.30
2019-04-03T17:24:48.562Z,14.20
2019-04-03T17:29:50.465Z,14.10
2019-04-03T17:34:55.429Z,14.00
2019-04-03T17:40:02.101Z,14.00
2019-04-03T17:45:07.503Z,14.00
2019-04-03T17:50:13.795Z,13.90
2019-04-03T17:55:18.624Z,13.80
2019-04-03T18:00:23.966Z,13.80
2019-04-03T18:05:28.800Z,13.70
2019-04-03T18:10:33.645Z,13.60
2019-04-03T18:15:38.502Z,13.50
2019-04-03T18:20:44.658Z,13.50
2019-04-03T18:25:49.773Z,13.50
2019-04-03T18:30:54.534Z,13.40
2019-04-03T18:35:59.364Z,13.30
2019-04-03T18:41:04.401Z,13.20
2019-04-03T18:46:31.558Z,13.20
2019-04-03T18:51:28.525Z,13.10
2019-04-03T18:56:33.363Z,13.00
2019-04-03T19:01:38.721Z,12.90
2019-04-03T19:06:44.834Z,12.90
2019-04-03T19:11:51.458Z,12.90
2019-04-03T19:16:56.746Z,12.90
2019-04-03T19:22:01.626Z,12.80
2019-04-03T19:27:06.464Z,12.80
2019-04-03T19:32:12.240Z,12.80
2019-04-03T19:37:17.744Z,12.80
2019-04-03T19:42:22.588Z,12.70
2019-04-03T19:47:27.435Z,12.70
2019-04-03T19:52:32.320Z,12.60
2019-04-03T19:57:38.204Z,12.60
2019-04-03T20:02:43.685Z,12.50
2019-04-03T20:07:48.668Z,12.40
2019-04-03T20:12:53.529Z,12.40
2019-04-03T20:17:58.680Z,12.30
2019-04-03T20:23:03.605Z,12.20
2019-04-03T20:28:08.452Z,12.20
2019-04-03T20:33:13.410Z,12.10
2019-04-03T20:38:18.307Z,12.00
2019-04-03T20:43:23.322Z,11.90
2019-04-03T20:48:28.678Z,11.80
2019-04-03T20:53:33.610Z,11.70
2019-04-03T20:58:40.721Z,11.60
2019-04-03T21:03:45.018Z,11.50
2019-04-03T21:08:49.887Z,11.50
2019-04-03T21:13:54.741Z,11.40
2019-04-03T21:18:59.982Z,11.40
2019-04-03T21:24:04.844Z,11.40
2019-04-03T21:29:09.728Z,11.40
2019-04-03T21:34:14.575Z,11.30
2019-04-03T21:39:19.410Z,11.30
2019-04-03T21:44:24.327Z,11.30
2019-04-03T21:49:29.153Z,11.30
2019-04-03T21:54:34.074Z,11.30
2019-04-03T21:59:39.914Z,11.30
2019-04-03T22:04:45.363Z,11.20
2019-04-03T22:09:50.416Z,11.10
2019-04-03T22:14:55.253Z,11.00
2019-04-03T22:20:00.021Z,11.00
2019-04-03T22:25:08.613Z,11.00
2019-04-03T22:30:12.021Z,10.90
2019-04-03T22:35:16.856Z,10.70
2019-04-03T22:40:21.688Z,10.70
2019-04-03T22:45:26.521Z,10.70
2019-04-03T22:50:33.453Z,10.70
2019-04-03T22:55:38.880Z,10.60
2019-04-03T23:00:43.705Z,10.50
2019-04-03T23:05:48.630Z,10.60
2019-04-03T23:10:53.494Z,10.50
2019-04-03T23:15:58.334Z,10.40
2019-04-03T23:21:03.164Z,10.40
2019-04-03T23:26:07.925Z,10.30
2019-04-03T23:31:13.042Z,10.30
2019-04-03T23:36:18.393Z,10.30
2019-04-03T23:41:36.669Z,10.20
2019-04-03T23:46:41.558Z,10.30
2019-04-03T23:51:46.380Z,10.20
2019-04-03T23:56:51.220Z,10.20
